Time;durP1;ratioP1;P1;durP2;ratioP2;P2;SDS_P1;SDS_P2;PMS_P1;PMS_P2;Temp;Humidity;BMP_temperature;BMP_pressure;BME280_temperature;BME280_humidity;BME280_pressure;Samples;Min_cycle;Max_cycle;Signal;HPM_P1;HPM_P2
2022/10/02 00:01:33;;;;;;;1.63;1.00;;;;;;;11.64;100.00;99859.50;5012333;28;20022;-74
2022/10/02 00:04:01;;;;;;;1.85;1.10;;;;;;;11.65;100.00;99870.44;4996795;28;20060;-74
2022/10/02 00:06:33;;;;;;;3.90;1.00;;;;;;;11.72;100.00;99878.53;5000111;28;20088;-75
2022/10/02 00:09:02;;;;;;;2.47;1.02;;;;;;;11.70;100.00;99874.63;5016515;28;20091;-76
2022/10/02 00:11:44;;;;;;;2.50;1.20;;;;;;;11.70;100.00;99877.50;5016097;28;20092;-75
2022/10/02 00:14:16;;;;;;;3.70;1.10;;;;;;;11.63;100.00;99884.47;5017741;28;20030;-75
2022/10/02 00:16:45;;;;;;;4.63;1.42;;;;;;;11.65;100.00;99889.69;5016265;28;20541;-75
2022/10/02 00:19:15;;;;;;;2.45;1.05;;;;;;;11.69;100.00;99893.88;4999871;28;20446;-75
2022/10/02 00:22:20;;;;;;;1.42;1.23;;;;;;;11.70;100.00;99889.72;5017315;28;20356;-74
2022/10/02 00:25:01;;;;;;;2.55;1.27;;;;;;;11.71;100.00;99913.41;5006228;28;20038;-76
2022/10/02 00:27:33;;;;;;;3.95;1.83;;;;;;;11.70;100.00;99912.63;5017473;28;20029;-73
2022/10/02 00:30:00;;;;;;;2.88;1.52;;;;;;;11.68;100.00;99903.75;5017203;28;20475;-76
2022/10/02 00:32:47;;;;;;;7.28;1.65;;;;;;;11.70;100.00;99904.03;5016154;28;20073;-75
2022/10/02 00:35:43;;;;;;;4.03;1.67;;;;;;;11.72;100.00;99910.00;5016077;28;20029;-76
2022/10/02 00:38:32;;;;;;;2.08;1.50;;;;;;;11.70;100.00;99912.63;5015972;28;20364;-75
2022/10/02 00:41:02;;;;;;;4.07;1.38;;;;;;;11.73;100.00;99913.66;4999525;28;20386;-75
2022/10/02 00:43:34;;;;;;;4.15;1.38;;;;;;;11.75;100.00;99911.09;4999418;28;20013;-75
2022/10/02 00:46:30;;;;;;;4.95;1.67;;;;;;;11.81;100.00;99917.63;5015653;28;20026;-75
2022/10/02 00:49:29;;;;;;;5.10;1.63;;;;;;;11.79;100.00;99918.16;5017030;28;20038;-75
2022/10/02 00:52:21;;;;;;;1.50;1.30;;;;;;;11.79;100.00;99917.34;5015316;28;20033;-75
2022/10/02 00:55:03;;;;;;;;;;;;;;;11.76;100.00;99915.53;5016036;28;20042;-75
2022/10/02 00:57:34;;;;;;;5.25;1.50;;;;;;;11.75;100.00;99919.69;4999114;28;19909;-76
2022/10/02 01:00:18;;;;;;;2.58;1.40;;;;;;;11.72;100.00;99923.53;5015967;28;20411;-74
2022/10/02 01:02:52;;;;;;;2.90;1.65;;;;;;;11.66;100.00;99922.75;4999111;28;20038;-75
2022/10/02 01:05:19;;;;;;;3.17;1.73;;;;;;;11.73;100.00;99922.25;5016495;28;20530;-75
2022/10/02 01:07:48;;;;;;;1.10;1.00;;;;;;;11.66;100.00;99929.25;5015158;28;20037;-75
2022/10/02 01:10:14;;;;;;;3.63;1.70;;;;;;;11.67;100.00;99936.53;5015263;28;20026;-75
2022/10/02 01:12:40;;;;;;;3.88;2.47;;;;;;;11.64;100.00;99934.69;5015226;28;20126;-75
2022/10/02 01:15:17;;;;;;;2.08;1.40;;;;;;;11.62;100.00;99939.34;5015228;28;20058;-76
2022/10/02 01:17:44;;;;;;;3.25;1.42;;;;;;;11.64;100.00;99942.50;4998774;28;20061;-76
2022/10/02 01:20:16;;;;;;;3.88;1.27;;;;;;;11.61;100.00;99947.16;5015038;28;20034;-75
2022/10/02 01:22:54;;;;;;;4.93;1.50;;;;;;;11.63;100.00;99947.44;4998650;28;20033;-76
2022/10/02 01:25:19;;;;;;;3.45;1.30;;;;;;;11.60;100.00;99948.47;5015011;28;20541;-75
2022/10/02 01:27:45;;;;;;;3.72;1.33;;;;;;;11.54;100.00;99941.09;4998586;28;20034;-76
2022/10/02 01:30:13;;;;;;;2.53;1.40;;;;;;;11.53;100.00;99946.03;5015064;28;20033;-75
2022/10/02 01:32:41;;;;;;;5.07;2.45;;;;;;;11.52;100.00;99964.50;5016010;28;20026;-75
2022/10/02 01:35:08;;;;;;;6.43;1.38;;;;;;;11.47;100.00;99967.34;5014982;28;20030;-75
2022/10/02 01:37:35;;;;;;;2.85;1.27;;;;;;;11.38;100.00;99960.50;5015130;28;20030;-74
2022/10/02 01:40:06;;;;;;;5.75;1.30;;;;;;;11.37;100.00;99966.72;4998587;28;20033;-75
2022/10/02 01:42:33;;;;;;;3.47;1.20;;;;;;;11.43;100.00;99972.50;5015205;28;20041;-75
2022/10/02 01:44:58;;;;;;;2.38;1.88;;;;;;;11.46;100.00;99971.50;5014676;28;20037;-76
2022/10/02 01:47:34;;;;;;;3.97;1.15;;;;;;;11.41;100.00;99967.28;5015919;28;20026;-74
2022/10/02 01:50:12;;;;;;;1.55;1.00;;;;;;;11.45;100.00;99975.63;5015896;28;20030;-76
2022/10/02 01:52:50;;;;;;;3.63;1.15;;;;;;;11.43;100.00;99975.34;5015618;28;20053;-75
2022/10/02 01:55:37;;;;;;;2.45;1.38;;;;;;;11.34;100.00;99979.97;5014475;28;20395;-74
2022/10/02 01:58:16;;;;;;;4.85;1.38;;;;;;;11.25;100.00;99983.00;4998031;28;20032;-76
2022/10/02 02:00:47;;;;;;;1.40;1.27;;;;;;;11.25;100.00;99985.88;5015943;28;20029;-76
2022/10/02 02:03:20;;;;;;;3.35;1.20;;;;;;;11.24;100.00;99986.38;5015858;28;20140;-75
2022/10/02 02:05:54;;;;;;;4.13;1.50;;;;;;;11.27;100.00;99993.94;5014322;28;20088;-75
2022/10/02 02:08:36;;;;;;;3.80;1.38;;;;;;;11.19;100.00;99981.38;5014550;28;20029;-75
2022/10/02 02:11:10;;;;;;;3.40;1.33;;;;;;;11.22;100.00;100003.25;4997985;28;20520;-76
2022/10/02 02:13:54;;;;;;;5.25;1.38;;;;;;;11.18;100.00;99999.81;5014339;28;20101;-75
2022/10/02 02:16:39;;;;;;;3.75;1.65;;;;;;;11.20;100.00;100009.47;4997612;28;20028;-75
2022/10/02 02:19:09;;;;;;;3.67;1.20;;;;;;;11.25;100.00;100007.97;5014070;28;20025;-74
2022/10/02 02:21:45;;;;;;;5.43;2.05;;;;;;;11.29;100.00;100017.09;5014539;28;20022;-74
2022/10/02 02:24:18;;;;;;;3.67;1.42;;;;;;;11.26;100.00;100013.19;5014144;28;20026;-75
2022/10/02 02:26:44;;;;;;;2.72;1.27;;;;;;;11.28;100.00;100026.97;5013298;28;20033;-75
2022/10/02 02:29:11;;;;;;;3.17;1.23;;;;;;;11.29;100.00;100029.31;5014167;28;20022;-75
2022/10/02 02:31:43;;;;;;;4.18;1.08;;;;;;;11.28;100.00;100038.41;4997476;28;20018;-75
2022/10/02 02:34:12;;;;;;;2.15;0.90;;;;;;;11.27;100.00;100036.84;4997657;28;20026;-76
2022/10/02 02:36:41;;;;;;;3.55;1.25;;;;;;;11.21;100.00;100039.66;5014005;28;20462;-76
2022/10/02 02:39:10;;;;;;;5.90;1.55;;;;;;;11.21;100.00;100042.50;5014985;28;20352;-76
2022/10/02 02:42:06;;;;;;;4.50;1.17;;;;;;;11.24;100.00;100052.16;5013707;28;20037;-76
2022/10/02 02:44:39;;;;;;;3.50;1.50;;;;;;;11.13;100.00;100032.78;5009481;28;20116;-76
2022/10/02 02:47:09;;;;;;;3.70;1.35;;;;;;;11.21;100.00;100051.09;4997275;28;20033;-74
2022/10/02 02:49:44;;;;;;;6.00;1.45;;;;;;;11.17;100.00;100050.50;5014628;28;20037;-77
2022/10/02 02:52:14;;;;;;;2.67;1.45;;;;;;;11.22;100.00;100051.88;5014970;28;20885;-75
2022/10/02 02:54:44;;;;;;;3.40;1.42;;;;;;;11.26;100.00;100055.31;5015175;28;20046;-75
2022/10/02 02:57:11;;;;;;;1.70;1.58;;;;;;;11.23;100.00;100062.00;4997168;28;20048;-76
2022/10/02 02:59:38;;;;;;;4.68;1.20;;;;;;;11.26;100.00;100049.59;4997058;28;20113;-75
2022/10/02 03:02:03;;;;;;;2.70;1.20;;;;;;;11.22;100.00;100058.38;5013296;28;20164;-75
2022/10/02 03:04:29;;;;;;;5.90;1.50;;;;;;;11.18;100.00;100057.81;5013358;28;20116;-75
2022/10/02 03:07:00;;;;;;;4.50;1.45;;;;;;;11.12;100.00;100056.19;4996869;28;20364;-75
2022/10/02 03:09:26;;;;;;;;;;;;;;;10.99;100.00;100065.88;4997306;28;20029;-76
2022/10/02 03:11:51;;;;;;;3.85;1.20;;;;;;;10.88;100.00;100065.75;4996803;28;19913;-75
2022/10/02 03:14:19;;;;;;;2.95;1.60;;;;;;;10.78;100.00;100072.88;5015078;28;20041;-75
2022/10/02 03:17:03;;;;;;;2.88;1.40;;;;;;;10.70;100.00;100074.63;5013266;28;20026;-75
2022/10/02 03:19:50;;;;;;;2.95;1.48;;;;;;;10.62;100.00;100082.06;5013326;28;20040;-75
2022/10/02 03:22:41;;;;;;;5.85;1.77;;;;;;;10.53;100.00;100090.75;5013640;28;20034;-75
2022/10/02 03:25:18;;;;;;;4.38;1.23;;;;;;;10.48;100.00;100091.47;4996836;28;20088;-75
2022/10/02 03:27:52;;;;;;;6.22;2.20;;;;;;;10.42;100.00;100085.66;5014657;28;20038;-75
2022/10/02 03:30:20;;;;;;;3.85;1.48;;;;;;;10.36;100.00;100081.16;4996644;28;20029;-75
2022/10/02 03:32:47;;;;;;;3.58;1.40;;;;;;;10.36;100.00;100090.50;5012851;28;20022;-75
2022/10/02 03:35:14;;;;;;;4.85;1.73;;;;;;;10.35;100.00;100097.50;5013199;28;20573;-75
2022/10/02 03:37:46;;;;;;;9.38;1.70;;;;;;;10.31;100.00;100101.84;4996456;28;20117;-75
2022/10/02 03:40:11;;;;;;;6.07;1.70;;;;;;;10.31;100.00;100107.56;5011941;28;20518;-76
2022/10/02 03:42:37;;;;;;;4.00;2.00;;;;;;;10.30;100.00;100086.78;4996408;28;20116;-75
2022/10/02 03:45:03;;;;;;;4.07;1.55;;;;;;;10.33;100.00;100100.09;5012845;28;20378;-75
2022/10/02 03:47:29;;;;;;;4.97;1.63;;;;;;;10.26;100.00;100091.13;5013871;28;20034;-75
2022/10/02 03:49:54;;;;;;;11.25;2.40;;;;;;;10.39;100.00;100106.63;5013797;28;20037;-77
2022/10/02 03:52:21;;;;;;;7.15;2.20;;;;;;;10.43;100.00;100098.66;5012321;28;20050;-74
2022/10/02 03:54:52;;;;;;;5.38;1.92;;;;;;;10.36;100.00;100101.16;5012749;28;20069;-75
2022/10/02 03:57:23;;;;;;;3.15;1.98;;;;;;;10.45;100.00;100103.88;4997152;28;20087;-75
2022/10/02 04:00:04;;;;;;;4.13;1.75;;;;;;;10.47;100.00;100119.25;5013861;28;20029;-76
2022/10/02 04:02:42;;;;;;;8.57;1.88;;;;;;;10.45;100.00;100113.22;5012409;28;20025;-74
2022/10/02 04:05:22;;;;;;;7.20;2.22;;;;;;;10.44;100.00;100116.56;5012839;28;20079;-75
2022/10/02 04:07:52;;;;;;;6.30;2.40;;;;;;;10.49;100.00;100113.00;5012709;28;20041;-75
2022/10/02 04:10:39;;;;;;;5.15;2.28;;;;;;;10.50;100.00;100123.16;5012509;28;20033;-75
2022/10/02 04:13:18;;;;;;;7.60;2.25;;;;;;;10.49;100.00;100130.16;5013437;28;20116;-75
2022/10/02 04:15:57;;;;;;;2.40;1.25;;;;;;;10.49;100.00;100130.16;4996056;28;20026;-75
2022/10/02 04:18:27;;;;;;;6.95;1.70;;;;;;;10.53;100.00;100130.75;5012614;28;20026;-75
2022/10/02 04:20:57;;;;;;;11.63;3.53;;;;;;;10.58;100.00;100134.97;5012559;28;20034;-75
2022/10/02 04:23:30;;;;;;;4.38;1.88;;;;;;;10.61;100.00;100122.53;5013544;28;20022;-75
2022/10/02 04:26:07;;;;;;;6.82;1.90;;;;;;;10.63;100.00;100132.19;5012276;28;20378;-75
2022/10/02 04:28:38;;;;;;;6.55;2.22;;;;;;;10.61;100.00;100133.97;5012588;28;20117;-75
2022/10/02 04:31:13;;;;;;;8.27;2.57;;;;;;;10.58;100.00;100132.13;5012457;28;20037;-75
2022/10/02 04:33:39;;;;;;;8.23;1.77;;;;;;;10.55;100.00;100140.41;5012251;28;20113;-75
2022/10/02 04:36:10;;;;;;;5.50;1.55;;;;;;;10.46;100.00;100134.81;5013383;28;20117;-75
2022/10/02 04:38:53;;;;;;;6.15;2.22;;;;;;;10.37;100.00;100134.13;5012664;28;20463;-74
2022/10/02 04:41:26;;;;;;;5.53;2.00;;;;;;;10.35;100.00;100142.41;5012375;28;20045;-75
2022/10/02 04:44:13;;;;;;;12.60;1.92;;;;;;;10.32;100.00;100147.06;4995745;28;20026;-75
2022/10/02 04:46:58;;;;;;;4.80;2.00;;;;;;;10.33;100.00;100150.69;5013246;28;20038;-74
2022/10/02 04:49:58;;;;;;;5.03;1.60;;;;;;;10.33;100.00;100147.84;4995754;28;20037;-75
2022/10/02 04:52:56;;;;;;;7.70;2.50;;;;;;;10.35;100.00;100156.69;5015170;28;20483;-76
2022/10/02 04:55:27;;;;;;;6.28;1.88;;;;;;;10.43;100.00;100147.22;5015916;28;20056;-75
2022/10/02 04:57:55;;;;;;;6.85;1.85;;;;;;;10.50;100.00;100151.72;5016945;28;20038;-76
2022/10/02 05:00:22;;;;;;;8.75;1.92;;;;;;;10.55;100.00;100163.25;5015505;28;20033;-74
2022/10/02 05:02:47;;;;;;;10.02;1.85;;;;;;;10.55;100.00;100159.59;5015487;28;20061;-75
2022/10/02 05:05:24;;;;;;;5.55;2.10;;;;;;;10.53;100.00;100159.34;5015280;28;20058;-76
2022/10/02 05:08:05;;;;;;;6.78;2.50;;;;;;;10.51;100.00;100153.31;4999143;28;20489;-76
2022/10/02 05:11:05;;;;;;;6.20;1.90;;;;;;;10.50;100.00;100161.09;5016775;28;20113;-76
2022/10/02 05:14:04;;;;;;;6.63;1.70;;;;;;;10.47;100.00;100158.44;5007478;28;20054;-74
2022/10/02 05:16:49;;;;;;;7.55;1.80;;;;;;;10.42;100.00;100168.50;5015292;28;20391;-75
2022/10/02 05:19:30;;;;;;;8.27;1.83;;;;;;;10.44;100.00;100160.22;4998964;28;20028;-75
2022/10/02 05:22:00;;;;;;;8.52;2.47;;;;;;;10.45;100.00;100166.72;5016344;28;20030;-75
2022/10/02 05:24:50;;;;;;;13.02;3.70;;;;;;;10.51;100.00;100171.25;5015167;28;20022;-75
2022/10/02 05:27:40;;;;;;;7.93;2.28;;;;;;;10.60;100.00;100172.41;5016609;28;20030;-76
2022/10/02 05:30:13;;;;;;;6.05;1.63;;;;;;;10.65;100.00;100171.69;5016273;28;20084;-75
2022/10/02 05:32:54;;;;;;;5.68;1.35;;;;;;;10.71;100.00;100167.66;5016429;28;20022;-75
2022/10/02 05:35:37;;;;;;;8.18;1.60;;;;;;;10.77;100.00;100174.22;5016326;28;20037;-74
2022/10/02 05:38:26;;;;;;;5.75;2.08;;;;;;;10.82;100.00;100169.88;4998648;28;20060;-75
2022/10/02 05:40:59;;;;;;;7.70;3.45;;;;;;;10.93;100.00;100173.66;5015161;28;20076;-75
2022/10/02 05:43:46;;;;;;;7.35;1.92;;;;;;;11.08;100.00;100178.53;5015703;28;20445;-76
2022/10/02 05:46:23;;;;;;;4.30;1.80;;;;;;;11.09;100.00;100172.31;5016532;28;20485;-74
2022/10/02 05:49:02;;;;;;;7.47;2.28;;;;;;;11.18;100.00;100166.50;5014960;28;20053;-75
2022/10/02 05:51:38;;;;;;;4.80;2.00;;;;;;;11.27;100.00;100174.16;5014891;28;20030;-74
2022/10/02 05:54:14;;;;;;;9.10;1.73;;;;;;;11.58;100.00;100171.38;5015573;28;20078;-75
2022/10/02 05:56:46;;;;;;;3.83;1.40;;;;;;;12.33;100.00;100173.16;5014629;28;20026;-75
2022/10/02 05:59:35;;;;;;;6.63;1.70;;;;;;;12.73;100.00;100165.66;5014567;28;20034;-75
2022/10/02 06:02:37;;;;;;;5.45;1.40;;;;;;;12.69;100.00;100180.25;4997391;28;20022;-75
2022/10/02 06:05:11;;;;;;;9.55;2.08;;;;;;;12.58;100.00;100177.31;5012316;28;20077;-75
2022/10/02 06:07:37;;;;;;;11.52;1.60;;;;;;;12.56;100.00;100182.75;5014294;28;20026;-75
2022/10/02 06:10:09;;;;;;;4.60;1.35;;;;;;;12.57;100.00;100187.19;5014639;28;20053;-75
2022/10/02 06:13:11;;;;;;;5.55;1.80;;;;;;;12.50;100.00;100174.13;4997986;28;20029;-75
2022/10/02 06:15:51;;;;;;;5.73;1.63;;;;;;;12.58;100.00;100186.69;5014380;28;20483;-75
2022/10/02 06:18:22;;;;;;;5.22;1.33;;;;;;;12.58;100.00;100186.69;4997828;28;20398;-76
2022/10/02 06:20:51;;;;;;;;;;;;;;;12.65;100.00;100174.72;5014696;28;20029;-75
2022/10/02 06:23:39;;;;;;;4.85;2.78;;;;;;;12.81;100.00;100190.47;4997773;28;20278;-75
2022/10/02 06:26:16;;;;;;;9.43;1.80;;;;;;;12.89;100.00;100187.94;5014352;28;20024;-75
2022/10/02 06:29:04;;;;;;;4.97;1.38;;;;;;;12.90;100.00;100187.41;5015484;28;20088;-75
2022/10/02 06:31:47;;;;;;;6.60;1.70;;;;;;;12.88;100.00;100195.75;5013924;28;20060;-75
2022/10/02 06:34:13;;;;;;;7.53;2.15;;;;;;;12.87;100.00;100196.25;5015152;28;20113;-75
2022/10/02 06:37:00;;;;;;;5.50;1.45;;;;;;;12.92;100.00;100199.16;5015092;28;20105;-76
2022/10/02 06:39:40;;;;;;;5.30;1.60;;;;;;;13.02;100.00;100202.63;5015196;28;20026;-74
2022/10/02 06:42:11;;;;;;;8.50;1.60;;;;;;;13.87;100.00;100199.59;5014050;28;20030;-75
2022/10/02 06:44:46;;;;;;;2.97;1.20;;;;;;;15.31;100.00;100198.78;5015042;28;20352;-75
2022/10/02 06:47:40;;;;;;;8.10;1.40;;;;;;;16.49;100.00;100199.69;5015225;28;20168;-75
2022/10/02 06:50:26;;;;;;;4.45;1.80;;;;;;;17.02;100.00;100201.06;5013591;28;20040;-75
2022/10/02 06:52:58;;;;;;;3.92;1.42;;;;;;;16.87;100.00;100204.34;5014979;28;20060;-76
2022/10/02 06:55:32;;;;;;;6.20;1.50;;;;;;;16.73;100.00;100208.44;5013471;28;20038;-74
2022/10/02 06:58:22;;;;;;;5.82;1.30;;;;;;;17.60;100.00;100197.78;5013506;28;20049;-75
2022/10/02 07:01:28;;;;;;;7.72;2.33;;;;;;;18.78;89.26;100214.97;5014903;28;20029;-75
2022/10/02 07:04:07;;;;;;;7.28;1.48;;;;;;;19.59;84.63;100216.09;5014697;28;20029;-75
2022/10/02 07:06:54;;;;;;;5.57;1.30;;;;;;;20.36;78.28;100221.50;5014938;28;20494;-75
2022/10/02 07:09:35;;;;;;;9.23;1.65;;;;;;;20.89;71.13;100221.31;4997200;28;20112;-74
2022/10/02 07:12:18;;;;;;;6.28;1.20;;;;;;;21.53;69.07;100221.44;5014782;28;20064;-75
2022/10/02 07:14:53;;;;;;;5.38;1.35;;;;;;;21.96;62.81;100220.69;5014382;28;20061;-75
2022/10/02 07:17:33;;;;;;;5.63;1.30;;;;;;;21.70;58.74;100230.44;5014724;28;20041;-76
2022/10/02 07:20:02;;;;;;;4.78;1.65;;;;;;;22.14;59.90;100231.22;5013183;28;20026;-75
2022/10/02 07:22:27;;;;;;;9.70;1.55;;;;;;;22.26;58.90;100235.38;5014350;28;20113;-75
2022/10/02 07:25:09;;;;;;;7.90;1.27;;;;;;;22.11;56.50;100235.28;5014964;28;20462;-75
2022/10/02 07:27:34;;;;;;;;;;;;;;;22.01;56.96;100232.16;5015092;28;20034;-76
2022/10/02 07:30:11;;;;;;;7.20;1.40;;;;;;;22.07;55.50;100235.66;5014550;28;19909;-76
2022/10/02 07:33:02;;;;;;;4.88;1.30;;;;;;;22.12;58.18;100231.03;5023038;23;20340;-76
2022/10/02 07:35:46;;;;;;;5.50;1.48;;;;;;;22.36;57.63;100238.50;5013250;28;20482;-76
2022/10/02 07:38:14;;;;;;;4.38;1.25;;;;;;;22.29;55.50;100242.94;5013974;28;20121;-75
2022/10/02 07:41:01;;;;;;;6.90;1.73;;;;;;;21.91;54.83;100236.94;5014026;28;20026;-75
2022/10/02 07:43:39;;;;;;;4.97;1.40;;;;;;;21.80;58.01;100231.44;5014250;28;20104;-74
2022/10/02 07:46:23;;;;;;;7.32;1.45;;;;;;;21.75;57.17;100237.44;5014253;28;20037;-74
2022/10/02 07:48:55;;;;;;;8.65;1.40;;;;;;;21.73;57.89;100232.19;5012757;28;20034;-76
2022/10/02 07:54:17;;;;;;;8.77;2.15;;;;;;;21.53;55.51;100233.06;5020484;28;19962;-75
2022/10/02 07:56:43;;;;;;;5.03;1.17;;;;;;;20.96;58.64;100249.63;5029076;28;20030;-77
2022/10/02 07:59:11;;;;;;;11.32;1.73;;;;;;;20.23;60.77;100245.56;5012648;28;20036;-76
2022/10/02 08:01:39;;;;;;;5.95;1.75;;;;;;;19.52;64.42;100229.13;5013873;28;20041;-77
2022/10/02 08:04:09;;;;;;;5.20;1.60;;;;;;;18.82;68.25;100229.91;5012585;28;20026;-75
2022/10/02 08:06:35;;;;;;;5.07;1.55;;;;;;;18.17;72.39;100216.72;5012966;28;20463;-76
2022/10/02 08:09:15;;;;;;;5.05;1.40;;;;;;;17.48;76.38;100210.81;5012922;28;20034;-75
2022/10/02 08:11:45;;;;;;;4.68;1.23;;;;;;;16.82;81.66;100215.97;5012676;28;20030;-75
2022/10/02 08:14:38;;;;;;;4.40;1.20;;;;;;;16.42;86.64;100221.25;5012528;28;20080;-75
2022/10/02 08:17:27;;;;;;;6.60;1.60;;;;;;;16.10;89.33;100217.28;5013786;28;20041;-75
2022/10/02 08:19:54;;;;;;;6.90;1.52;;;;;;;15.90;91.95;100215.56;5012601;28;20033;-75
2022/10/02 08:22:28;;;;;;;6.07;1.50;;;;;;;15.83;94.25;100215.34;5012560;28;20029;-75
2022/10/02 08:25:03;;;;;;;6.55;2.20;;;;;;;15.78;96.21;100208.28;5012700;28;20030;-76
2022/10/02 08:27:55;;;;;;;3.60;1.20;;;;;;;15.96;96.46;100212.63;5016336;28;20029;-75
2022/10/02 08:30:20;;;;;;;;;;;;;;;16.27;96.65;100202.75;5007190;28;20053;-76
2022/10/02 08:32:46;;;;;;;4.15;1.38;;;;;;;16.47;94.72;100197.34;5016821;28;19925;-75
2022/10/02 08:35:17;;;;;;;4.05;1.63;;;;;;;16.64;91.32;100205.13;5017390;28;20482;-75
2022/10/02 08:38:11;;;;;;;5.15;1.75;;;;;;;16.68;90.90;100188.28;5016142;28;20030;-75
2022/10/02 08:41:01;;;;;;;5.25;1.30;;;;;;;16.64;91.98;100185.69;5017225;28;20034;-75
2022/10/02 08:43:53;;;;;;;4.55;1.23;;;;;;;16.76;91.06;100187.16;5017339;28;20407;-75
2022/10/02 08:46:47;;;;;;;6.63;1.30;;;;;;;16.79;90.90;100186.09;5016138;28;20025;-75
2022/10/02 08:49:20;;;;;;;3.40;1.40;;;;;;;17.04;92.07;100178.22;5017347;28;20034;-75
2022/10/02 08:51:55;;;;;;;7.20;1.77;;;;;;;17.54;91.90;100174.75;5015974;28;20100;-77
2022/10/02 08:54:26;;;;;;;6.05;1.77;;;;;;;18.04;86.23;100182.72;5016904;28;20064;-75
2022/10/02 08:57:31;;;;;;;7.07;1.30;;;;;;;18.33;81.39;100183.09;5017446;28;20038;-76
2022/10/02 09:00:04;;;;;;;4.68;1.20;;;;;;;18.34;81.17;100173.88;5016940;28;20392;-75
2022/10/02 09:03:03;;;;;;;5.50;1.20;;;;;;;18.35;79.19;100184.13;5017028;28;20033;-76
2022/10/02 09:06:10;;;;;;;5.30;1.60;;;;;;;18.30;80.09;100176.28;5015776;28;20440;-76
2022/10/02 09:08:56;;;;;;;5.65;1.58;;;;;;;18.33;82.01;100180.19;5015770;28;20034;-76
2022/10/02 09:11:27;;;;;;;3.20;0.90;;;;;;;18.30;76.86;100173.38;5017386;28;20030;-75
2022/10/02 09:14:20;;;;;;;4.57;1.08;;;;;;;18.35;74.96;100180.44;5016955;28;20040;-75
2022/10/02 09:17:13;;;;;;;4.95;0.90;;;;;;;18.39;76.66;100183.78;5016847;28;20084;-75
2022/10/02 09:20:13;;;;;;;2.75;1.10;;;;;;;18.56;77.38;100169.84;5016974;28;20033;-77
2022/10/02 09:22:57;;;;;;;6.55;1.33;;;;;;;18.57;75.49;100177.94;5016346;28;20029;-74
2022/10/02 09:25:37;;;;;;;4.32;1.35;;;;;;;18.67;74.28;100170.41;5015102;28;20156;-76
2022/10/02 09:28:56;;;;;;;5.43;1.20;;;;;;;18.65;73.46;100178.88;4998896;28;20033;-74
2022/10/02 09:32:01;;;;;;;6.40;1.42;;;;;;;18.67;73.63;100170.41;5015170;28;20026;-74
2022/10/02 09:34:38;;;;;;;5.65;1.25;;;;;;;18.55;73.83;100177.72;5016497;28;20042;-75
2022/10/02 09:37:36;;;;;;;3.17;1.20;;;;;;;18.61;74.53;100177.63;5013809;28;20466;-76
2022/10/02 09:40:10;;;;;;;2.35;1.27;;;;;;;18.64;74.09;100170.72;5016039;28;20030;-76
2022/10/02 09:42:58;;;;;;;6.18;1.00;;;;;;;18.73;73.67;100173.19;5016684;28;20371;-76
2022/10/02 09:45:45;;;;;;;3.58;1.25;;;;;;;18.64;73.99;100167.84;5016304;28;20064;-76
2022/10/02 09:48:48;;;;;;;4.38;1.20;;;;;;;18.61;75.91;100161.06;5016028;28;20029;-74
2022/10/02 09:51:39;;;;;;;4.13;1.30;;;;;;;18.61;73.44;100163.94;5015849;28;20034;-76
2022/10/02 09:54:28;;;;;;;4.05;1.13;;;;;;;18.61;73.64;100168.94;5015920;28;20037;-75
2022/10/02 09:57:16;;;;;;;4.95;1.17;;;;;;;18.56;72.08;100179.28;5015677;28;20037;-75
2022/10/02 10:00:18;;;;;;;4.65;1.50;;;;;;;18.19;74.98;100165.66;5016181;28;20114;-76
2022/10/02 10:03:09;;;;;;;5.25;1.60;;;;;;;17.87;77.99;100169.84;4999797;28;20501;-76
2022/10/02 10:06:00;;;;;;;5.82;1.20;;;;;;;17.53;78.71;100164.53;5014361;28;20076;-75
2022/10/02 10:08:29;;;;;;;;;;;;;;;17.39;80.43;100163.59;4995294;28;20053;-76
2022/10/02 10:11:04;;;;;;;4.75;1.38;;;;;;;17.15;82.40;100159.97;5014313;28;19932;-75
2022/10/02 10:14:07;;;;;;;6.05;1.67;;;;;;;16.85;86.29;100146.38;5015350;28;20030;-76
2022/10/02 10:16:42;;;;;;;8.27;1.55;;;;;;;16.81;89.54;100154.56;5015680;28;20072;-76
2022/10/02 10:19:25;;;;;;;10.50;1.92;;;;;;;17.03;88.87;100147.00;5015712;28;20111;-75
2022/10/02 10:22:18;;;;;;;7.93;1.73;;;;;;;17.32;88.04;100146.13;5015989;28;20042;-75
2022/10/02 10:24:43;;;;;;;6.53;1.63;;;;;;;17.51;85.96;100141.16;5015603;28;20030;-76
2022/10/02 10:27:38;;;;;;;5.75;1.65;;;;;;;17.75;84.62;100143.97;5015458;28;20367;-75
2022/10/02 10:30:27;;;;;;;6.57;2.28;;;;;;;18.17;82.07;100144.41;4996062;28;20045;-77
2022/10/02 10:33:32;;;;;;;5.68;1.40;;;;;;;18.51;81.89;100138.88;5014895;28;20124;-76
2022/10/02 10:36:00;;;;;;;7.35;1.67;;;;;;;18.73;77.93;100135.56;5015681;28;20402;-74
2022/10/02 10:38:34;;;;;;;7.75;1.77;;;;;;;18.91;81.01;100111.53;5015007;28;20030;-75
2022/10/02 10:41:37;;;;;;;7.05;2.17;;;;;;;19.07;76.91;100119.09;5013801;28;20037;-74
2022/10/02 10:44:43;;;;;;;4.40;1.50;;;;;;;18.90;77.36;100115.00;5015133;28;20076;-76
2022/10/02 10:47:21;;;;;;;8.70;1.60;;;;;;;18.83;79.19;100104.84;5014203;28;20075;-75
2022/10/02 10:49:53;;;;;;;5.25;1.70;;;;;;;18.84;75.62;100103.50;5014634;28;20062;-75
2022/10/02 10:52:34;;;;;;;4.93;1.63;;;;;;;18.78;77.51;100099.94;5014979;28;20029;-76
2022/10/02 10:55:32;;;;;;;5.85;1.77;;;;;;;18.87;79.35;100104.53;5015190;28;20029;-76
2022/10/02 10:58:31;;;;;;;7.07;1.60;;;;;;;18.84;73.96;100105.63;5013776;28;20115;-75
2022/10/02 11:01:22;;;;;;;5.30;1.45;;;;;;;18.61;73.80;100105.28;5014602;28;20026;-75
2022/10/02 11:04:18;;;;;;;9.07;1.50;;;;;;;18.53;74.36;100105.13;4997763;28;20112;-75
2022/10/02 11:07:20;;;;;;;3.28;1.10;;;;;;;18.62;74.29;100098.16;5015376;28;20087;-74
2022/10/02 11:10:16;;;;;;;7.60;1.77;;;;;;;18.51;75.46;100093.34;5014491;28;20076;-77
2022/10/02 11:12:52;;;;;;;6.35;1.40;;;;;;;18.42;77.08;100070.63;5013284;28;20037;-76
2022/10/02 11:15:30;;;;;;;4.93;1.27;;;;;;;18.50;77.78;100067.84;5014648;28;20087;-75
2022/10/02 11:18:37;;;;;;;7.57;1.65;;;;;;;18.59;73.48;100096.34;5014165;28;20029;-77
2022/10/02 11:21:09;;;;;;;5.32;2.05;;;;;;;18.48;72.21;100088.66;4995167;28;20072;-75
2022/10/02 11:23:49;;;;;;;5.65;1.58;;;;;;;18.39;72.55;100096.97;5014322;28;20084;-75
2022/10/02 11:26:49;;;;;;;4.05;1.20;;;;;;;18.14;67.51;100107.91;5014747;28;20041;-75
2022/10/02 11:29:43;;;;;;;7.50;1.17;;;;;;;18.12;69.58;100105.56;5013937;28;20049;-74
2022/10/02 11:32:46;;;;;;;2.40;1.20;;;;;;;18.08;72.91;100090.63;5013942;28;20076;-76
2022/10/02 11:35:26;;;;;;;6.88;1.60;;;;;;;18.15;72.27;100081.31;5014399;28;20041;-75
2022/10/02 11:38:18;;;;;;;4.38;1.52;;;;;;;18.17;73.33;100083.66;5014305;28;20037;-75
2022/10/02 11:41:06;;;;;;;5.20;1.10;;;;;;;18.13;73.20;100086.09;5012959;28;20537;-76
2022/10/02 11:43:46;;;;;;;4.95;0.95;;;;;;;18.19;73.18;100083.88;5014496;28;20026;-76
2022/10/02 11:46:47;;;;;;;6.32;1.20;;;;;;;18.24;73.30;100075.13;5014381;28;20034;-76
2022/10/02 11:49:25;;;;;;;2.85;1.17;;;;;;;18.37;73.17;100073.63;5014352;28;20034;-76
2022/10/02 11:51:57;;;;;;;6.60;1.65;;;;;;;18.35;70.47;100079.97;5014689;28;20163;-75
2022/10/02 11:54:43;;;;;;;4.47;1.50;;;;;;;18.34;68.97;100089.97;5014140;28;20029;-76
2022/10/02 11:57:33;;;;;;;5.32;1.50;;;;;;;18.34;69.03;100072.59;5014107;28;20176;-75
2022/10/02 12:00:28;;;;;;;4.47;1.38;;;;;;;18.12;69.38;100082.44;5012299;28;20029;-75
2022/10/02 12:03:00;;;;;;;3.90;1.35;;;;;;;17.86;71.75;100076.53;5010311;28;20034;-75
2022/10/02 12:06:04;;;;;;;5.10;2.47;;;;;;;17.56;73.58;100073.84;5012733;28;20030;-76
2022/10/02 12:08:42;;;;;;;6.40;1.73;;;;;;;17.37;76.12;100082.50;5012972;28;20024;-76
2022/10/02 12:11:18;;;;;;;2.60;1.35;;;;;;;17.26;78.15;100081.84;5013872;28;20061;-75
2022/10/02 12:13:59;;;;;;;1.40;1.08;;;;;;;17.19;80.52;100082.50;5014112;28;20030;-75
2022/10/02 12:16:25;;;;;;;4.55;1.20;;;;;;;17.08;80.02;100080.53;4996720;28;20034;-75
2022/10/02 12:18:56;;;;;;;7.53;2.00;;;;;;;16.95;80.95;100086.19;5014170;28;20046;-75
2022/10/02 12:27:21;;;;;;;6.82;1.77;;;;;;;16.16;96.58;100078.84;5013852;28;20034;-77
2022/10/02 12:30:14;;;;;;;3.80;1.30;;;;;;;16.11;98.26;100092.78;5013943;28;20037;-75